BOX19NF GMMN-EDDP
Flight info
| Callsign | BOX19NF |
|---|---|
| Flight time | 3h 4m |
| Altitude | 32000 |
| Route | TOLSI UG5 KORIS L27 VJF N10 HIJ M30 PARKA N858 TLD/N0482F340 N858 DGO L176 LUSEM DCT LULUT DCT ADABI DCT BOKNO DCT DIBES DCT VIQAQ DCT TSU UN858 OQQAL DCT RANUX/N0480F330 DCT VALEK DCT LIPNI UN858 LIMGO DCT MASEK T278 TAMEB T955 GOXLI GOXLI1R |
| Aircraft | B77L/H-SDE1E2E3FGHIJ2J3J4J5M1RWXY/LB1D1 |
Departure
| Time | 2026-05-07 16:45 |
|---|---|
| Airport | Mohammed V International Airport (GMMN) |
Arrival
| Time | 2026-05-07 19:49 |
|---|---|
| Airport | Leipzig/Halle Airport (EDDP) |
| Time | Latitude | Longitude | Altitude | Speed | Heading |
|---|---|---|---|---|---|
| 2026-05-07 16:10 | 33.36224 | -7.57989 | 663 ft | 0 kts | 75° |
| 2026-05-07 16:19 | 33.36224 | -7.57990 | 663 ft | 0 kts | 75° |
| 2026-05-07 16:21 | 33.36224 | -7.57989 | 663 ft | 0 kts | 75° |
| 2026-05-07 16:21 | 33.36224 | -7.57990 | 663 ft | 0 kts | 75° |
| 2026-05-07 16:22 | 33.36223 | -7.57998 | 663 ft | 2 kts | 75° |
| 2026-05-07 16:22 | 33.36219 | -7.58015 | 663 ft | 2 kts | 75° |
| 2026-05-07 16:23 | 33.36215 | -7.58033 | 662 ft | 2 kts | 75° |
| 2026-05-07 16:23 | 33.36213 | -7.58050 | 662 ft | 2 kts | 108° |
| 2026-05-07 16:23 | 33.36221 | -7.58066 | 662 ft | 2 kts | 139° |
| 2026-05-07 16:23 | 33.36230 | -7.58074 | 661 ft | 0 kts | 163° |
| 2026-05-07 16:24 | 33.36235 | -7.58076 | 661 ft | 0 kts | 164° |
| 2026-05-07 16:28 | 33.36220 | -7.58071 | 661 ft | 3 kts | 163° |
| 2026-05-07 16:28 | 33.36195 | -7.58062 | 662 ft | 4 kts | 163° |
| 2026-05-07 16:28 | 33.36164 | -7.58051 | 662 ft | 5 kts | 163° |
| 2026-05-07 16:28 | 33.36124 | -7.58037 | 663 ft | 6 kts | 163° |
| 2026-05-07 16:29 | 33.36075 | -7.58020 | 663 ft | 7 kts | 163° |
| 2026-05-07 16:29 | 33.36020 | -7.58001 | 663 ft | 8 kts | 163° |
| 2026-05-07 16:29 | 33.35960 | -7.57981 | 664 ft | 9 kts | 163° |
| 2026-05-07 16:29 | 33.35897 | -7.57959 | 664 ft | 9 kts | 163° |
| 2026-05-07 16:30 | 33.35832 | -7.57937 | 665 ft | 9 kts | 164° |
| 2026-05-07 16:30 | 33.35765 | -7.57914 | 665 ft | 10 kts | 164° |
| 2026-05-07 16:30 | 33.35710 | -7.57896 | 665 ft | 0 kts | 164° |
| 2026-05-07 16:32 | 33.35698 | -7.57892 | 666 ft | 3 kts | 164° |
| 2026-05-07 16:32 | 33.35653 | -7.57887 | 666 ft | 7 kts | 189° |
| 2026-05-07 16:33 | 33.35616 | -7.57930 | 665 ft | 0 kts | 244° |
| 2026-05-07 16:33 | 33.35610 | -7.57947 | 665 ft | 4 kts | 249° |
| 2026-05-07 16:33 | 33.35600 | -7.57974 | 665 ft | 6 kts | 244° |
| 2026-05-07 16:34 | 33.35556 | -7.58012 | 666 ft | 5 kts | 182° |
| 2026-05-07 16:34 | 33.35515 | -7.58005 | 666 ft | 7 kts | 164° |
| 2026-05-07 16:34 | 33.35460 | -7.57987 | 667 ft | 9 kts | 162° |
| 2026-05-07 16:34 | 33.35415 | -7.57970 | 667 ft | 10 kts | 162° |
| 2026-05-07 16:35 | 33.35319 | -7.57945 | 668 ft | 10 kts | 179° |
| 2026-05-07 16:35 | 33.35292 | -7.57952 | 668 ft | 3 kts | 202° |
| 2026-05-07 16:35 | 33.35286 | -7.57956 | 668 ft | 0 kts | 206° |
| 2026-05-07 16:37 | 33.35275 | -7.57964 | 668 ft | 2 kts | 219° |
| 2026-05-07 16:37 | 33.35265 | -7.57979 | 668 ft | 4 kts | 232° |
| 2026-05-07 16:37 | 33.35254 | -7.58003 | 668 ft | 0 kts | 247° |
| 2026-05-07 16:40 | 33.35253 | -7.58007 | 668 ft | 1 kts | 248° |
| 2026-05-07 16:40 | 33.35246 | -7.58031 | 668 ft | 4 kts | 252° |
| 2026-05-07 16:40 | 33.35240 | -7.58055 | 669 ft | 2 kts | 253° |
| 2026-05-07 16:40 | 33.35240 | -7.58056 | 669 ft | 0 kts | 253° |
| 2026-05-07 16:42 | 33.35235 | -7.58076 | 669 ft | 4 kts | 253° |
| 2026-05-07 16:42 | 33.35228 | -7.58105 | 668 ft | 6 kts | 254° |
| 2026-05-07 16:43 | 33.35214 | -7.58172 | 667 ft | 10 kts | 258° |
| 2026-05-07 16:43 | 33.35224 | -7.58254 | 667 ft | 9 kts | 310° |
| 2026-05-07 16:43 | 33.35264 | -7.58277 | 667 ft | 0 kts | 342° |
| 2026-05-07 16:44 | 33.35291 | -7.58287 | 667 ft | 11 kts | 343° |
| 2026-05-07 16:45 | 33.35441 | -7.58337 | 665 ft | 59 kts | 344° |
| 2026-05-07 16:45 | 33.36083 | -7.58549 | 662 ft | 131 kts | 343° |
| 2026-05-07 16:45 | 33.37172 | -7.58926 | 687 ft | 190 kts | 345° |
| 2026-05-07 16:45 | 33.38972 | -7.59506 | 1588 ft | 209 kts | 343° |
| 2026-05-07 16:46 | 33.39898 | -7.59755 | 2156 ft | 214 kts | 356° |
| 2026-05-07 16:46 | 33.41384 | -7.59435 | 2826 ft | 227 kts | 19° |
| 2026-05-07 16:46 | 33.43377 | -7.58508 | 3828 ft | 240 kts | 18° |
| 2026-05-07 16:46 | 33.44367 | -7.57895 | 4314 ft | 249 kts | 29° |
| 2026-05-07 16:47 | 33.46167 | -7.56059 | 5214 ft | 263 kts | 40° |
| 2026-05-07 16:47 | 33.47015 | -7.55028 | 5870 ft | 264 kts | 42° |
| 2026-05-07 16:47 | 33.48690 | -7.52848 | 7044 ft | 270 kts | 44° |
| 2026-05-07 16:47 | 33.49523 | -7.51722 | 7552 ft | 276 kts | 44° |
| 2026-05-07 16:48 | 33.51508 | -7.49654 | 8106 ft | 299 kts | 20° |
| 2026-05-07 16:48 | 33.52834 | -7.49172 | 8526 ft | 300 kts | 2° |
| 2026-05-07 16:48 | 33.54876 | -7.48917 | 9337 ft | 307 kts | 7° |
| 2026-05-07 16:48 | 33.56967 | -7.48187 | 10132 ft | 316 kts | 16° |
| 2026-05-07 16:49 | 33.59069 | -7.47330 | 10386 ft | 330 kts | 16° |
| 2026-05-07 16:49 | 33.61286 | -7.46370 | 10417 ft | 348 kts | 18° |
| 2026-05-07 16:49 | 33.63615 | -7.45334 | 10464 ft | 366 kts | 18° |
| 2026-05-07 16:49 | 33.66907 | -7.43860 | 10536 ft | 390 kts | 18° |
| 2026-05-07 16:50 | 33.68610 | -7.43095 | 10642 ft | 400 kts | 18° |
| 2026-05-07 16:50 | 33.71224 | -7.41921 | 11105 ft | 405 kts | 19° |
| 2026-05-07 16:50 | 33.73853 | -7.40740 | 11705 ft | 406 kts | 19° |
| 2026-05-07 16:50 | 33.76479 | -7.39559 | 12228 ft | 409 kts | 20° |
| 2026-05-07 16:51 | 33.79143 | -7.38353 | 12741 ft | 413 kts | 20° |
| 2026-05-07 16:51 | 33.81862 | -7.37125 | 13282 ft | 415 kts | 20° |
| 2026-05-07 16:51 | 33.84539 | -7.35916 | 13811 ft | 418 kts | 20° |
| 2026-05-07 16:51 | 33.87277 | -7.34679 | 14336 ft | 421 kts | 20° |
| 2026-05-07 16:52 | 33.90025 | -7.33439 | 14845 ft | 423 kts | 20° |
| 2026-05-07 16:52 | 33.92759 | -7.32202 | 15345 ft | 426 kts | 20° |
| 2026-05-07 16:52 | 33.95547 | -7.30940 | 15839 ft | 429 kts | 20° |
| 2026-05-07 16:52 | 33.99255 | -7.29261 | 16476 ft | 432 kts | 20° |
| 2026-05-07 16:53 | 34.01143 | -7.28405 | 16791 ft | 434 kts | 20° |
| 2026-05-07 16:53 | 34.03946 | -7.27134 | 17254 ft | 437 kts | 20° |
| 2026-05-07 16:53 | 34.06796 | -7.25841 | 17723 ft | 439 kts | 20° |
| 2026-05-07 16:53 | 34.09660 | -7.24541 | 18184 ft | 442 kts | 20° |
| 2026-05-07 16:54 | 34.12527 | -7.23238 | 18627 ft | 445 kts | 20° |
| 2026-05-07 16:54 | 34.15406 | -7.21928 | 19064 ft | 447 kts | 20° |
| 2026-05-07 16:54 | 34.18351 | -7.20589 | 19498 ft | 449 kts | 20° |
| 2026-05-07 16:54 | 34.21248 | -7.19269 | 19916 ft | 452 kts | 20° |
| 2026-05-07 16:55 | 34.24169 | -7.17938 | 20337 ft | 454 kts | 20° |
| 2026-05-07 16:55 | 34.27119 | -7.16592 | 20757 ft | 456 kts | 20° |
| 2026-05-07 16:55 | 34.30121 | -7.15222 | 21172 ft | 458 kts | 20° |
| 2026-05-07 16:55 | 34.33059 | -7.13880 | 21563 ft | 460 kts | 20° |
| 2026-05-07 16:56 | 34.36056 | -7.12510 | 21955 ft | 462 kts | 20° |
| 2026-05-07 16:56 | 34.39067 | -7.11133 | 22361 ft | 464 kts | 20° |
| 2026-05-07 16:56 | 34.45106 | -7.08366 | 23136 ft | 468 kts | 20° |
| 2026-05-07 16:57 | 34.48145 | -7.06973 | 23516 ft | 470 kts | 20° |
| 2026-05-07 16:57 | 34.51227 | -7.05558 | 23896 ft | 472 kts | 20° |
| 2026-05-07 16:57 | 34.54275 | -7.04158 | 24260 ft | 474 kts | 20° |
| 2026-05-07 16:57 | 34.58398 | -7.02262 | 24762 ft | 476 kts | 21° |
| 2026-05-07 16:58 | 34.60414 | -7.01230 | 24977 ft | 478 kts | 25° |
| 2026-05-07 16:58 | 34.63381 | -6.99430 | 25287 ft | 480 kts | 26° |
| 2026-05-07 16:58 | 34.66380 | -6.97624 | 25642 ft | 482 kts | 26° |
| 2026-05-07 16:58 | 34.69345 | -6.95810 | 26024 ft | 483 kts | 27° |
| 2026-05-07 16:59 | 34.72366 | -6.93961 | 26408 ft | 484 kts | 27° |
| 2026-05-07 16:59 | 34.75327 | -6.92144 | 26773 ft | 486 kts | 27° |
| 2026-05-07 16:59 | 34.78338 | -6.90294 | 27141 ft | 487 kts | 27° |
| 2026-05-07 16:59 | 34.81351 | -6.88442 | 27507 ft | 488 kts | 27° |
| 2026-05-07 17:00 | 34.84391 | -6.86572 | 27874 ft | 490 kts | 27° |
| 2026-05-07 17:00 | 34.87425 | -6.84705 | 28235 ft | 491 kts | 27° |
| 2026-05-07 17:00 | 34.90474 | -6.82825 | 28598 ft | 492 kts | 27° |
| 2026-05-07 17:00 | 34.93483 | -6.80972 | 28950 ft | 493 kts | 27° |
| 2026-05-07 17:01 | 34.96571 | -6.79067 | 29304 ft | 494 kts | 27° |
| 2026-05-07 17:01 | 34.99632 | -6.77176 | 29653 ft | 495 kts | 27° |
| 2026-05-07 17:01 | 35.02694 | -6.75282 | 30006 ft | 496 kts | 27° |
| 2026-05-07 17:01 | 35.05740 | -6.73399 | 30356 ft | 497 kts | 28° |
| 2026-05-07 17:02 | 35.08815 | -6.71491 | 30708 ft | 498 kts | 28° |
| 2026-05-07 17:02 | 35.11916 | -6.69567 | 31055 ft | 500 kts | 28° |
| 2026-05-07 17:02 | 35.15015 | -6.67645 | 31398 ft | 501 kts | 28° |
| 2026-05-07 17:02 | 35.18112 | -6.65722 | 31743 ft | 502 kts | 28° |
| 2026-05-07 17:03 | 35.21187 | -6.63810 | 32147 ft | 504 kts | 28° |
| 2026-05-07 17:03 | 35.24331 | -6.61853 | 31988 ft | 519 kts | 28° |
| 2026-05-07 17:03 | 35.30844 | -6.57797 | 31916 ft | 530 kts | 28° |
| 2026-05-07 17:04 | 35.37368 | -6.53727 | 31905 ft | 521 kts | 28° |
| 2026-05-07 17:04 | 35.43791 | -6.49711 | 31916 ft | 521 kts | 28° |
| 2026-05-07 17:05 | 35.50178 | -6.45570 | 31915 ft | 522 kts | 28° |
| 2026-05-07 17:05 | 35.56601 | -6.41385 | 31916 ft | 523 kts | 28° |
| 2026-05-07 17:06 | 35.62989 | -6.37211 | 31913 ft | 523 kts | 28° |
| 2026-05-07 17:06 | 35.69399 | -6.33017 | 31914 ft | 523 kts | 29° |
| 2026-05-07 17:07 | 35.75795 | -6.28831 | 31914 ft | 523 kts | 29° |
| 2026-05-07 17:07 | 35.82154 | -6.24688 | 31915 ft | 522 kts | 29° |
| 2026-05-07 17:08 | 35.88553 | -6.20551 | 31916 ft | 522 kts | 29° |
| 2026-05-07 17:08 | 35.94985 | -6.16393 | 31916 ft | 523 kts | 29° |
| 2026-05-07 17:09 | 36.01395 | -6.12233 | 31917 ft | 523 kts | 29° |
| 2026-05-07 17:09 | 36.07824 | -6.08055 | 31915 ft | 522 kts | 29° |
| 2026-05-07 17:10 | 36.14218 | -6.03891 | 31908 ft | 523 kts | 29° |
| 2026-05-07 17:10 | 36.20643 | -5.99729 | 31912 ft | 523 kts | 26° |
| 2026-05-07 17:11 | 36.27517 | -5.96951 | 31915 ft | 525 kts | 9° |
| 2026-05-07 17:11 | 36.34729 | -5.95645 | 31911 ft | 525 kts | 8° |
| 2026-05-07 17:12 | 36.41932 | -5.94363 | 31911 ft | 525 kts | 8° |
| 2026-05-07 17:12 | 36.49131 | -5.93084 | 31913 ft | 525 kts | 8° |
| 2026-05-07 17:13 | 36.56335 | -5.91801 | 31911 ft | 525 kts | 8° |
| 2026-05-07 17:13 | 36.63543 | -5.90515 | 31912 ft | 525 kts | 8° |
| 2026-05-07 17:14 | 36.70726 | -5.89232 | 31911 ft | 525 kts | 8° |
| 2026-05-07 17:14 | 36.77906 | -5.87945 | 31916 ft | 525 kts | 8° |
| 2026-05-07 17:15 | 36.85146 | -5.86647 | 31922 ft | 526 kts | 8° |
| 2026-05-07 17:15 | 36.88768 | -5.85997 | 32173 ft | 530 kts | 8° |
| 2026-05-07 17:15 | 36.92382 | -5.85347 | 32418 ft | 526 kts | 8° |
| 2026-05-07 17:16 | 36.99556 | -5.84061 | 32380 ft | 524 kts | 8° |
| 2026-05-07 17:16 | 37.06731 | -5.82780 | 32393 ft | 517 kts | 11° |
| 2026-05-07 17:17 | 37.13682 | -5.81520 | 32271 ft | 500 kts | 11° |
| 2026-05-07 17:17 | 37.17095 | -5.80894 | 31839 ft | 495 kts | 11° |
| 2026-05-07 17:17 | 37.20532 | -5.80264 | 31913 ft | 504 kts | 11° |
| 2026-05-07 17:18 | 37.27512 | -5.78997 | 31885 ft | 510 kts | 11° |
| 2026-05-07 17:18 | 37.34484 | -5.77730 | 31883 ft | 508 kts | 11° |
| 2026-05-07 17:19 | 37.41421 | -5.76285 | 31881 ft | 505 kts | 18° |
| 2026-05-07 17:19 | 37.47896 | -5.73044 | 31889 ft | 500 kts | 28° |
| 2026-05-07 17:20 | 37.54164 | -5.69321 | 31884 ft | 500 kts | 28° |
| 2026-05-07 17:20 | 37.60379 | -5.65565 | 31883 ft | 500 kts | 28° |
| 2026-05-07 17:21 | 37.66615 | -5.61782 | 31884 ft | 499 kts | 29° |
| 2026-05-07 17:21 | 37.72837 | -5.57999 | 31884 ft | 499 kts | 29° |
| 2026-05-07 17:22 | 37.79089 | -5.54190 | 31884 ft | 500 kts | 29° |
| 2026-05-07 17:22 | 37.85328 | -5.50381 | 31882 ft | 499 kts | 29° |
| 2026-05-07 17:23 | 37.91572 | -5.46562 | 31879 ft | 499 kts | 29° |
| 2026-05-07 17:23 | 37.97774 | -5.42764 | 31869 ft | 499 kts | 29° |
| 2026-05-07 17:24 | 38.04027 | -5.38924 | 31859 ft | 499 kts | 28° |
| 2026-05-07 17:24 | 38.10262 | -5.35091 | 31857 ft | 499 kts | 29° |
| 2026-05-07 17:25 | 38.16436 | -5.31286 | 31858 ft | 499 kts | 29° |
| 2026-05-07 17:25 | 38.22657 | -5.27445 | 31858 ft | 499 kts | 29° |
| 2026-05-07 17:26 | 38.28887 | -5.23591 | 31858 ft | 499 kts | 29° |
| 2026-05-07 17:26 | 38.35102 | -5.19740 | 31858 ft | 499 kts | 29° |
| 2026-05-07 17:27 | 38.41355 | -5.15858 | 31858 ft | 500 kts | 29° |
| 2026-05-07 17:27 | 38.47620 | -5.12098 | 31858 ft | 500 kts | 26° |
| 2026-05-07 17:28 | 38.54314 | -5.09715 | 31864 ft | 510 kts | 10° |
| 2026-05-07 17:28 | 38.61388 | -5.09929 | 31865 ft | 517 kts | 353° |
| 2026-05-07 17:29 | 38.68436 | -5.11606 | 31860 ft | 515 kts | 357° |
| 2026-05-07 17:29 | 38.75548 | -5.12461 | 31859 ft | 515 kts | 358° |
| 2026-05-07 17:30 | 38.82645 | -5.13207 | 31859 ft | 514 kts | 358° |
| 2026-05-07 17:30 | 38.89742 | -5.13935 | 31859 ft | 516 kts | 358° |
| 2026-05-07 17:31 | 38.96948 | -5.14001 | 31868 ft | 523 kts | 5° |
| 2026-05-07 17:31 | 39.04044 | -5.12352 | 31865 ft | 520 kts | 19° |
| 2026-05-07 17:32 | 39.10445 | -5.08196 | 31865 ft | 519 kts | 36° |
| 2026-05-07 17:32 | 39.15914 | -5.02203 | 31859 ft | 519 kts | 38° |
| 2026-05-07 17:33 | 39.21843 | -4.96973 | 31857 ft | 519 kts | 34° |
| 2026-05-07 17:33 | 39.27866 | -4.91921 | 31871 ft | 517 kts | 33° |
| 2026-05-07 17:34 | 39.33878 | -4.86906 | 31897 ft | 516 kts | 33° |
| 2026-05-07 17:34 | 39.39891 | -4.81887 | 31928 ft | 514 kts | 33° |
| 2026-05-07 17:35 | 39.45844 | -4.76908 | 31939 ft | 514 kts | 32° |
| 2026-05-07 17:35 | 39.51839 | -4.71884 | 31939 ft | 514 kts | 32° |
| 2026-05-07 17:36 | 39.57809 | -4.66871 | 31940 ft | 514 kts | 32° |
| 2026-05-07 17:36 | 39.63799 | -4.61829 | 31940 ft | 514 kts | 32° |
| 2026-05-07 17:37 | 39.69772 | -4.56792 | 31940 ft | 514 kts | 32° |
| 2026-05-07 17:37 | 39.75722 | -4.51764 | 31941 ft | 514 kts | 32° |
| 2026-05-07 17:38 | 39.81673 | -4.46723 | 31941 ft | 514 kts | 32° |
| 2026-05-07 17:38 | 39.87641 | -4.41659 | 31941 ft | 514 kts | 32° |
| 2026-05-07 17:39 | 39.93597 | -4.36593 | 31941 ft | 514 kts | 32° |
| 2026-05-07 17:39 | 39.99804 | -4.32033 | 31944 ft | 513 kts | 24° |
| 2026-05-07 17:40 | 40.06249 | -4.28082 | 31940 ft | 514 kts | 25° |
| 2026-05-07 17:40 | 40.12674 | -4.24157 | 31937 ft | 514 kts | 25° |
| 2026-05-07 17:41 | 40.19115 | -4.20217 | 31937 ft | 514 kts | 25° |
| 2026-05-07 17:41 | 40.25580 | -4.16255 | 31937 ft | 514 kts | 25° |
| 2026-05-07 17:42 | 40.32049 | -4.12282 | 31938 ft | 514 kts | 25° |
| 2026-05-07 17:42 | 40.38454 | -4.08340 | 31938 ft | 514 kts | 25° |
| 2026-05-07 17:43 | 40.44921 | -4.04352 | 31938 ft | 514 kts | 25° |
| 2026-05-07 17:43 | 40.51336 | -4.00387 | 31939 ft | 514 kts | 25° |
| 2026-05-07 17:44 | 40.57793 | -3.96387 | 31939 ft | 514 kts | 25° |
| 2026-05-07 17:44 | 40.64233 | -3.92389 | 31939 ft | 514 kts | 25° |
| 2026-05-07 17:45 | 40.70693 | -3.88371 | 31940 ft | 514 kts | 25° |
| 2026-05-07 17:45 | 40.77090 | -3.84384 | 31940 ft | 514 kts | 25° |
| 2026-05-07 17:46 | 40.83525 | -3.80364 | 31940 ft | 514 kts | 25° |
| 2026-05-07 17:46 | 40.89991 | -3.76315 | 31941 ft | 514 kts | 25° |
| 2026-05-07 17:47 | 40.96417 | -3.72283 | 31941 ft | 514 kts | 25° |
| 2026-05-07 17:47 | 41.02875 | -3.68210 | 31943 ft | 521 kts | 24° |
| 2026-05-07 17:48 | 41.09428 | -3.64073 | 31943 ft | 525 kts | 22° |
| 2026-05-07 17:48 | 41.15970 | -3.59986 | 31940 ft | 523 kts | 19° |
| 2026-05-07 17:49 | 41.22671 | -3.56376 | 31941 ft | 523 kts | 18° |
| 2026-05-07 17:49 | 41.29391 | -3.52713 | 31942 ft | 523 kts | 18° |
| 2026-05-07 17:50 | 41.36093 | -3.49046 | 31942 ft | 523 kts | 18° |
| 2026-05-07 17:50 | 41.42788 | -3.45376 | 31943 ft | 523 kts | 18° |
| 2026-05-07 17:51 | 41.49459 | -3.41709 | 31943 ft | 523 kts | 18° |
| 2026-05-07 17:51 | 41.56182 | -3.38005 | 31944 ft | 522 kts | 18° |
| 2026-05-07 17:52 | 41.62851 | -3.34321 | 31940 ft | 523 kts | 19° |
| 2026-05-07 17:52 | 41.69534 | -3.30622 | 31937 ft | 523 kts | 19° |
| 2026-05-07 17:53 | 41.76215 | -3.26915 | 31938 ft | 523 kts | 19° |
| 2026-05-07 17:53 | 41.82911 | -3.23192 | 31938 ft | 523 kts | 19° |
| 2026-05-07 17:54 | 41.89612 | -3.19457 | 31939 ft | 523 kts | 19° |
| 2026-05-07 17:54 | 41.96328 | -3.15706 | 31939 ft | 523 kts | 19° |
| 2026-05-07 17:55 | 42.02980 | -3.11982 | 31940 ft | 523 kts | 19° |
| 2026-05-07 17:55 | 42.09658 | -3.08234 | 31940 ft | 523 kts | 19° |
| 2026-05-07 17:56 | 42.16359 | -3.04466 | 31934 ft | 523 kts | 19° |
| 2026-05-07 17:56 | 42.23078 | -3.00678 | 31928 ft | 523 kts | 19° |
| 2026-05-07 17:57 | 42.29772 | -2.96895 | 31922 ft | 523 kts | 19° |
| 2026-05-07 17:57 | 42.36454 | -2.93111 | 31919 ft | 523 kts | 19° |
| 2026-05-07 17:58 | 42.43104 | -2.89203 | 31913 ft | 526 kts | 24° |
| 2026-05-07 17:58 | 42.49068 | -2.83516 | 31918 ft | 532 kts | 39° |
| 2026-05-07 17:59 | 42.54620 | -2.76888 | 31913 ft | 532 kts | 39° |
| 2026-05-07 17:59 | 42.60145 | -2.70227 | 31914 ft | 532 kts | 39° |
| 2026-05-07 18:00 | 42.65641 | -2.63579 | 31915 ft | 532 kts | 39° |
| 2026-05-07 18:00 | 42.71138 | -2.56912 | 31915 ft | 532 kts | 39° |
| 2026-05-07 18:01 | 42.76644 | -2.50218 | 31916 ft | 532 kts | 39° |
| 2026-05-07 18:01 | 42.82147 | -2.43510 | 31917 ft | 532 kts | 39° |
| 2026-05-07 18:02 | 42.90356 | -2.33471 | 31913 ft | 535 kts | 39° |
| 2026-05-07 18:03 | 42.95942 | -2.26607 | 31907 ft | 542 kts | 39° |
| 2026-05-07 18:03 | 43.01523 | -2.19733 | 31897 ft | 547 kts | 37° |
| 2026-05-07 18:04 | 43.07161 | -2.12779 | 31886 ft | 550 kts | 37° |
| 2026-05-07 18:04 | 43.12851 | -2.05749 | 31871 ft | 546 kts | 37° |
| 2026-05-07 18:05 | 43.18457 | -1.98803 | 31887 ft | 547 kts | 37° |
| 2026-05-07 18:05 | 43.24095 | -1.91796 | 31886 ft | 549 kts | 37° |
| 2026-05-07 18:06 | 43.29754 | -1.84821 | 31884 ft | 546 kts | 33° |
| 2026-05-07 18:06 | 43.36066 | -1.79213 | 31901 ft | 543 kts | 23° |
| 2026-05-07 18:07 | 43.42366 | -1.73647 | 31885 ft | 538 kts | 27° |
| 2026-05-07 18:07 | 43.48635 | -1.67986 | 31878 ft | 537 kts | 27° |
| 2026-05-07 18:08 | 43.54862 | -1.62355 | 31887 ft | 539 kts | 27° |
| 2026-05-07 18:08 | 43.61098 | -1.56698 | 31900 ft | 545 kts | 27° |
| 2026-05-07 18:09 | 43.67347 | -1.51007 | 31891 ft | 538 kts | 27° |
| 2026-05-07 18:09 | 43.73598 | -1.45307 | 31881 ft | 537 kts | 27° |
| 2026-05-07 18:10 | 43.79878 | -1.39569 | 31897 ft | 541 kts | 27° |
| 2026-05-07 18:10 | 43.86097 | -1.33869 | 31907 ft | 542 kts | 27° |
| 2026-05-07 18:11 | 43.92326 | -1.28144 | 31918 ft | 543 kts | 27° |
| 2026-05-07 18:11 | 43.98579 | -1.22383 | 31915 ft | 544 kts | 27° |
| 2026-05-07 18:12 | 44.04871 | -1.16567 | 31895 ft | 536 kts | 27° |
| 2026-05-07 18:12 | 44.11064 | -1.10837 | 31915 ft | 540 kts | 28° |
| 2026-05-07 18:13 | 44.17251 | -1.05092 | 31916 ft | 538 kts | 28° |
| 2026-05-07 18:13 | 44.23428 | -0.99342 | 31914 ft | 537 kts | 28° |
| 2026-05-07 18:14 | 44.29598 | -0.93581 | 31908 ft | 533 kts | 28° |
| 2026-05-07 18:14 | 44.35786 | -0.87794 | 31907 ft | 534 kts | 28° |
| 2026-05-07 18:15 | 44.42113 | -0.82627 | 31926 ft | 523 kts | 17° |
| 2026-05-07 18:15 | 44.48756 | -0.78562 | 31929 ft | 525 kts | 17° |
| 2026-05-07 18:16 | 44.55480 | -0.74450 | 31924 ft | 521 kts | 17° |
| 2026-05-07 18:16 | 44.62100 | -0.70402 | 31945 ft | 523 kts | 17° |
| 2026-05-07 18:17 | 44.68745 | -0.66324 | 31950 ft | 530 kts | 17° |
| 2026-05-07 18:17 | 44.75471 | -0.62179 | 31924 ft | 519 kts | 17° |
| 2026-05-07 18:18 | 44.82096 | -0.58100 | 31949 ft | 523 kts | 17° |
| 2026-05-07 18:18 | 44.88757 | -0.53984 | 31957 ft | 533 kts | 17° |
| 2026-05-07 18:19 | 44.95427 | -0.49838 | 31938 ft | 518 kts | 17° |
| 2026-05-07 18:19 | 45.02066 | -0.45725 | 31949 ft | 527 kts | 17° |
| 2026-05-07 18:20 | 45.08733 | -0.41567 | 31935 ft | 523 kts | 17° |
| 2026-05-07 18:20 | 45.15407 | -0.37399 | 31938 ft | 524 kts | 18° |
| 2026-05-07 18:21 | 45.22118 | -0.33195 | 31933 ft | 528 kts | 18° |
| 2026-05-07 18:21 | 45.28747 | -0.29033 | 31946 ft | 530 kts | 18° |
| 2026-05-07 18:22 | 45.35416 | -0.24832 | 31935 ft | 525 kts | 18° |
| 2026-05-07 18:22 | 45.42094 | -0.20617 | 31941 ft | 529 kts | 18° |
| 2026-05-07 18:23 | 45.48821 | -0.16359 | 31930 ft | 524 kts | 18° |
| 2026-05-07 18:23 | 45.55445 | -0.12160 | 31957 ft | 527 kts | 18° |
| 2026-05-07 18:24 | 45.62118 | -0.07916 | 31963 ft | 533 kts | 18° |
| 2026-05-07 18:24 | 45.68813 | -0.03641 | 31950 ft | 523 kts | 18° |
| 2026-05-07 18:25 | 45.75510 | 0.00638 | 31963 ft | 526 kts | 18° |
| 2026-05-07 18:25 | 45.82185 | 0.04915 | 31976 ft | 532 kts | 18° |
| 2026-05-07 18:26 | 45.88844 | 0.09197 | 31973 ft | 528 kts | 18° |
| 2026-05-07 18:26 | 45.95487 | 0.13483 | 31962 ft | 524 kts | 18° |
| 2026-05-07 18:27 | 46.02180 | 0.17805 | 31958 ft | 524 kts | 18° |
| 2026-05-07 18:27 | 46.08842 | 0.22118 | 31969 ft | 526 kts | 18° |
| 2026-05-07 18:28 | 46.15471 | 0.26428 | 31972 ft | 526 kts | 18° |
| 2026-05-07 18:28 | 46.22121 | 0.30759 | 31967 ft | 527 kts | 18° |
| 2026-05-07 18:29 | 46.28770 | 0.35101 | 31968 ft | 527 kts | 18° |
| 2026-05-07 18:29 | 46.35454 | 0.39479 | 31969 ft | 527 kts | 18° |
| 2026-05-07 18:30 | 46.42107 | 0.43848 | 31972 ft | 528 kts | 18° |
| 2026-05-07 18:30 | 46.48773 | 0.48240 | 31964 ft | 525 kts | 18° |
| 2026-05-07 18:31 | 46.55469 | 0.52525 | 31966 ft | 524 kts | 14° |
| 2026-05-07 18:31 | 46.58908 | 0.53985 | 31967 ft | 513 kts | 6° |
| 2026-05-07 18:31 | 46.62376 | 0.55107 | 31981 ft | 516 kts | 6° |
| 2026-05-07 18:32 | 46.69360 | 0.57433 | 31982 ft | 523 kts | 6° |
| 2026-05-07 18:32 | 46.76325 | 0.59742 | 31967 ft | 512 kts | 6° |
| 2026-05-07 18:33 | 46.83316 | 0.62053 | 31964 ft | 514 kts | 6° |
| 2026-05-07 18:33 | 46.90302 | 0.64369 | 31976 ft | 518 kts | 6° |
| 2026-05-07 18:34 | 46.97269 | 0.66694 | 31986 ft | 519 kts | 6° |
| 2026-05-07 18:34 | 47.04201 | 0.69459 | 31986 ft | 524 kts | 15° |
| 2026-05-07 18:35 | 47.10702 | 0.74564 | 32001 ft | 541 kts | 25° |
| 2026-05-07 18:35 | 47.17096 | 0.80213 | 31989 ft | 536 kts | 25° |
| 2026-05-07 18:36 | 47.23454 | 0.85888 | 31991 ft | 537 kts | 25° |
| 2026-05-07 18:36 | 47.29833 | 0.91606 | 31992 ft | 538 kts | 25° |
| 2026-05-07 18:37 | 47.36241 | 0.97369 | 31985 ft | 536 kts | 25° |
| 2026-05-07 18:37 | 47.42591 | 1.03085 | 32002 ft | 541 kts | 25° |
| 2026-05-07 18:37 | 47.45776 | 1.05972 | 31975 ft | 528 kts | 25° |
| 2026-05-07 18:38 | 47.48918 | 1.08810 | 32002 ft | 533 kts | 25° |
| 2026-05-07 18:38 | 47.55338 | 1.14049 | 31996 ft | 526 kts | 21° |
| 2026-05-07 18:39 | 47.61783 | 1.19085 | 31981 ft | 521 kts | 21° |
| 2026-05-07 18:39 | 47.68216 | 1.24122 | 31997 ft | 524 kts | 22° |
| 2026-05-07 18:40 | 47.74668 | 1.29190 | 32006 ft | 534 kts | 22° |
| 2026-05-07 18:40 | 47.81100 | 1.34268 | 31983 ft | 518 kts | 21° |
| 2026-05-07 18:41 | 47.87476 | 1.39299 | 32000 ft | 524 kts | 22° |
| 2026-05-07 18:41 | 47.93913 | 1.44400 | 31998 ft | 525 kts | 22° |
| 2026-05-07 18:42 | 48.00325 | 1.49496 | 31998 ft | 525 kts | 22° |
| 2026-05-07 18:42 | 48.06753 | 1.54619 | 31999 ft | 525 kts | 22° |
| 2026-05-07 18:43 | 48.13161 | 1.59740 | 31998 ft | 525 kts | 22° |
| 2026-05-07 18:43 | 48.19603 | 1.64902 | 31999 ft | 525 kts | 22° |
| 2026-05-07 18:44 | 48.26020 | 1.70061 | 31990 ft | 526 kts | 22° |
| 2026-05-07 18:44 | 48.32412 | 1.75214 | 31990 ft | 526 kts | 22° |
| 2026-05-07 18:45 | 48.38853 | 1.80422 | 31994 ft | 526 kts | 22° |
| 2026-05-07 18:45 | 48.45265 | 1.85621 | 32004 ft | 526 kts | 22° |
| 2026-05-07 18:46 | 48.51702 | 1.90856 | 32016 ft | 526 kts | 22° |
| 2026-05-07 18:46 | 48.58068 | 1.96047 | 32019 ft | 526 kts | 22° |
| 2026-05-07 18:47 | 48.64505 | 2.01312 | 32020 ft | 526 kts | 22° |
| 2026-05-07 18:47 | 48.70570 | 2.07494 | 32024 ft | 537 kts | 37° |
| 2026-05-07 18:48 | 48.75794 | 2.15728 | 32020 ft | 544 kts | 48° |
| 2026-05-07 18:48 | 48.79621 | 2.25602 | 32026 ft | 552 kts | 65° |
| 2026-05-07 18:49 | 48.81566 | 2.36831 | 32029 ft | 555 kts | 83° |
| 2026-05-07 18:49 | 48.82313 | 2.48480 | 32034 ft | 555 kts | 77° |
| 2026-05-07 18:50 | 48.84253 | 2.59792 | 32046 ft | 554 kts | 73° |
| 2026-05-07 18:50 | 48.86231 | 2.71034 | 32040 ft | 554 kts | 74° |
| 2026-05-07 18:51 | 48.88203 | 2.82314 | 32046 ft | 554 kts | 74° |
| 2026-05-07 18:51 | 48.90133 | 2.93418 | 32046 ft | 554 kts | 74° |
| 2026-05-07 18:52 | 48.92083 | 3.04719 | 32047 ft | 552 kts | 73° |
| 2026-05-07 18:52 | 48.94009 | 3.15933 | 32048 ft | 551 kts | 73° |
| 2026-05-07 18:53 | 48.95930 | 3.27181 | 32049 ft | 551 kts | 73° |
| 2026-05-07 18:53 | 48.97838 | 3.38442 | 32051 ft | 554 kts | 73° |
| 2026-05-07 18:54 | 48.99751 | 3.49804 | 32052 ft | 557 kts | 73° |
| 2026-05-07 18:54 | 49.01662 | 3.61229 | 32054 ft | 560 kts | 73° |
| 2026-05-07 18:55 | 49.03579 | 3.72757 | 32042 ft | 563 kts | 74° |
| 2026-05-07 18:55 | 49.05494 | 3.84369 | 32045 ft | 567 kts | 74° |
| 2026-05-07 18:56 | 49.07407 | 3.96043 | 32046 ft | 570 kts | 74° |
| 2026-05-07 18:56 | 49.09307 | 4.07721 | 32048 ft | 573 kts | 74° |
| 2026-05-07 18:57 | 49.11224 | 4.19584 | 32049 ft | 576 kts | 74° |
| 2026-05-07 18:57 | 49.13133 | 4.31482 | 32051 ft | 578 kts | 74° |
| 2026-05-07 18:58 | 49.15725 | 4.42929 | 32058 ft | 574 kts | 63° |
| 2026-05-07 18:58 | 49.18784 | 4.54204 | 32055 ft | 574 kts | 64° |
| 2026-05-07 18:59 | 49.21823 | 4.65457 | 32056 ft | 574 kts | 65° |
| 2026-05-07 18:59 | 49.24841 | 4.76685 | 32044 ft | 574 kts | 65° |
| 2026-05-07 19:00 | 49.27867 | 4.88009 | 32045 ft | 572 kts | 64° |
| 2026-05-07 19:00 | 49.30850 | 4.99221 | 32046 ft | 569 kts | 64° |
| 2026-05-07 19:01 | 49.33798 | 5.10346 | 32048 ft | 567 kts | 64° |
| 2026-05-07 19:01 | 49.36754 | 5.21551 | 32050 ft | 568 kts | 64° |
| 2026-05-07 19:02 | 49.39696 | 5.32766 | 32051 ft | 568 kts | 64° |
| 2026-05-07 19:02 | 49.42622 | 5.43975 | 32053 ft | 568 kts | 64° |
| 2026-05-07 19:03 | 49.45557 | 5.55274 | 32452 ft | 574 kts | 64° |
| 2026-05-07 19:03 | 49.47026 | 5.60962 | 33012 ft | 571 kts | 64° |
| 2026-05-07 19:03 | 49.48499 | 5.66665 | 33039 ft | 569 kts | 65° |
| 2026-05-07 19:04 | 49.51384 | 5.77888 | 33044 ft | 568 kts | 65° |
| 2026-05-07 19:04 | 49.54163 | 5.89283 | 33043 ft | 568 kts | 65° |
| 2026-05-07 19:05 | 49.56972 | 6.00628 | 33119 ft | 573 kts | 65° |
| 2026-05-07 19:05 | 49.58396 | 6.06411 | 33597 ft | 574 kts | 65° |
| 2026-05-07 19:05 | 49.59794 | 6.12111 | 34203 ft | 572 kts | 65° |
| 2026-05-07 19:05 | 49.61198 | 6.17837 | 34806 ft | 569 kts | 65° |
| 2026-05-07 19:06 | 49.62574 | 6.23459 | 35059 ft | 568 kts | 65° |
| 2026-05-07 19:06 | 49.67739 | 6.39610 | 35047 ft | 557 kts | 56° |
| 2026-05-07 19:07 | 49.71356 | 6.49994 | 35047 ft | 547 kts | 56° |
| 2026-05-07 19:07 | 49.74954 | 6.60339 | 35052 ft | 548 kts | 56° |
| 2026-05-07 19:08 | 49.78546 | 6.70708 | 35031 ft | 549 kts | 57° |
| 2026-05-07 19:08 | 49.82126 | 6.81096 | 35033 ft | 549 kts | 57° |
| 2026-05-07 19:09 | 49.85707 | 6.91525 | 35034 ft | 549 kts | 57° |
| 2026-05-07 19:09 | 49.89284 | 7.01994 | 35038 ft | 548 kts | 56° |
| 2026-05-07 19:10 | 49.92813 | 7.12369 | 35042 ft | 545 kts | 56° |
| 2026-05-07 19:10 | 49.96341 | 7.22768 | 35047 ft | 542 kts | 55° |
| 2026-05-07 19:11 | 49.99840 | 7.33106 | 35049 ft | 543 kts | 55° |
| 2026-05-07 19:11 | 50.03321 | 7.43452 | 35050 ft | 543 kts | 55° |
| 2026-05-07 19:12 | 50.06806 | 7.53852 | 35052 ft | 543 kts | 55° |
| 2026-05-07 19:12 | 50.10278 | 7.64255 | 35054 ft | 543 kts | 55° |
| 2026-05-07 19:13 | 50.13733 | 7.74651 | 35046 ft | 544 kts | 56° |
| 2026-05-07 19:13 | 50.17193 | 7.85118 | 35050 ft | 544 kts | 57° |
| 2026-05-07 19:14 | 50.19832 | 7.96284 | 35064 ft | 554 kts | 68° |
| 2026-05-07 19:14 | 50.22332 | 8.07478 | 35057 ft | 551 kts | 64° |
| 2026-05-07 19:15 | 50.24957 | 8.18767 | 35058 ft | 551 kts | 64° |
| 2026-05-07 19:15 | 50.27564 | 8.29981 | 35059 ft | 551 kts | 64° |
| 2026-05-07 19:16 | 50.30156 | 8.41185 | 35061 ft | 551 kts | 64° |
| 2026-05-07 19:16 | 50.32743 | 8.52430 | 35058 ft | 549 kts | 64° |
| 2026-05-07 19:17 | 50.35261 | 8.63435 | 35077 ft | 535 kts | 64° |
| 2026-05-07 19:17 | 50.36496 | 8.68855 | 35047 ft | 521 kts | 65° |
| 2026-05-07 19:17 | 50.37692 | 8.74119 | 35060 ft | 516 kts | 65° |
| 2026-05-07 19:18 | 50.40119 | 8.84806 | 35075 ft | 523 kts | 65° |
| 2026-05-07 19:18 | 50.42527 | 8.95518 | 35047 ft | 516 kts | 64° |
| 2026-05-07 19:19 | 50.43701 | 9.00771 | 34614 ft | 512 kts | 64° |
| 2026-05-07 19:19 | 50.44879 | 9.06012 | 33881 ft | 514 kts | 63° |
| 2026-05-07 19:19 | 50.46059 | 9.11274 | 33160 ft | 515 kts | 63° |
| 2026-05-07 19:19 | 50.47237 | 9.16529 | 32471 ft | 516 kts | 64° |
| 2026-05-07 19:20 | 50.48434 | 9.21894 | 31767 ft | 517 kts | 64° |
| 2026-05-07 19:20 | 50.49603 | 9.27171 | 31082 ft | 518 kts | 64° |
| 2026-05-07 19:20 | 50.50787 | 9.32509 | 30371 ft | 519 kts | 65° |
| 2026-05-07 19:20 | 50.51955 | 9.37810 | 29685 ft | 519 kts | 65° |
| 2026-05-07 19:21 | 50.53126 | 9.43136 | 29006 ft | 519 kts | 65° |
| 2026-05-07 19:21 | 50.54288 | 9.48421 | 28306 ft | 519 kts | 66° |
| 2026-05-07 19:21 | 50.55457 | 9.53768 | 27764 ft | 516 kts | 66° |
| 2026-05-07 19:21 | 50.56604 | 9.59026 | 27154 ft | 514 kts | 66° |
| 2026-05-07 19:22 | 50.57758 | 9.64309 | 26462 ft | 514 kts | 66° |
| 2026-05-07 19:22 | 50.58879 | 9.69468 | 25781 ft | 514 kts | 68° |
| 2026-05-07 19:22 | 50.60009 | 9.74687 | 25176 ft | 512 kts | 68° |
| 2026-05-07 19:22 | 50.61156 | 9.79999 | 25113 ft | 519 kts | 68° |
| 2026-05-07 19:23 | 50.62308 | 9.85356 | 25097 ft | 515 kts | 68° |
| 2026-05-07 19:23 | 50.63438 | 9.90621 | 25090 ft | 510 kts | 68° |
| 2026-05-07 19:23 | 50.64553 | 9.95820 | 25079 ft | 501 kts | 68° |
| 2026-05-07 19:23 | 50.65651 | 10.00953 | 25078 ft | 495 kts | 68° |
| 2026-05-07 19:24 | 50.66749 | 10.06100 | 25077 ft | 493 kts | 68° |
| 2026-05-07 19:24 | 50.67826 | 10.11152 | 25076 ft | 493 kts | 68° |
| 2026-05-07 19:24 | 50.68921 | 10.16303 | 25076 ft | 494 kts | 68° |
| 2026-05-07 19:24 | 50.70007 | 10.21430 | 25076 ft | 494 kts | 68° |
| 2026-05-07 19:25 | 50.71084 | 10.26529 | 25076 ft | 494 kts | 68° |
| 2026-05-07 19:25 | 50.72171 | 10.31687 | 25077 ft | 494 kts | 68° |
| 2026-05-07 19:25 | 50.73249 | 10.36815 | 25077 ft | 494 kts | 68° |
| 2026-05-07 19:25 | 50.74323 | 10.41937 | 25078 ft | 495 kts | 68° |
| 2026-05-07 19:26 | 50.75395 | 10.47062 | 25078 ft | 494 kts | 68° |
| 2026-05-07 19:26 | 50.76479 | 10.52261 | 25079 ft | 494 kts | 68° |
| 2026-05-07 19:26 | 50.77527 | 10.57301 | 24975 ft | 485 kts | 68° |
| 2026-05-07 19:26 | 50.78583 | 10.62389 | 24452 ft | 482 kts | 68° |
| 2026-05-07 19:27 | 50.79562 | 10.67089 | 23771 ft | 484 kts | 69° |
| 2026-05-07 19:27 | 50.80697 | 10.72210 | 23020 ft | 483 kts | 64° |
| 2026-05-07 19:27 | 50.82172 | 10.76851 | 22303 ft | 479 kts | 56° |
| 2026-05-07 19:27 | 50.83888 | 10.81328 | 21579 ft | 479 kts | 56° |
| 2026-05-07 19:28 | 50.85544 | 10.85805 | 20875 ft | 479 kts | 56° |
| 2026-05-07 19:28 | 50.87215 | 10.90287 | 20204 ft | 478 kts | 57° |
| 2026-05-07 19:28 | 50.88918 | 10.94888 | 20081 ft | 485 kts | 57° |
| 2026-05-07 19:28 | 50.90616 | 10.99481 | 20076 ft | 483 kts | 57° |
| 2026-05-07 19:29 | 50.92285 | 11.04007 | 20058 ft | 470 kts | 58° |
| 2026-05-07 19:29 | 50.93926 | 11.08458 | 20077 ft | 472 kts | 58° |
| 2026-05-07 19:29 | 50.95570 | 11.12931 | 20079 ft | 475 kts | 58° |
| 2026-05-07 19:29 | 50.97228 | 11.17446 | 20078 ft | 476 kts | 58° |
| 2026-05-07 19:30 | 50.98877 | 11.21947 | 20067 ft | 467 kts | 59° |
| 2026-05-07 19:30 | 51.00498 | 11.26380 | 20076 ft | 466 kts | 59° |
| 2026-05-07 19:30 | 51.02123 | 11.30828 | 20080 ft | 467 kts | 59° |
| 2026-05-07 19:30 | 51.03747 | 11.35283 | 20081 ft | 468 kts | 60° |
| 2026-05-07 19:31 | 51.05388 | 11.39795 | 20081 ft | 469 kts | 60° |
| 2026-05-07 19:31 | 51.06995 | 11.44231 | 20081 ft | 469 kts | 60° |
| 2026-05-07 19:31 | 51.08632 | 11.48751 | 20082 ft | 468 kts | 61° |
| 2026-05-07 19:31 | 51.10100 | 11.53214 | 20082 ft | 468 kts | 65° |
| 2026-05-07 19:32 | 51.11248 | 11.57950 | 20073 ft | 464 kts | 75° |
| 2026-05-07 19:32 | 51.11916 | 11.62871 | 19813 ft | 452 kts | 85° |
| 2026-05-07 19:32 | 51.12095 | 11.67816 | 19238 ft | 445 kts | 95° |
| 2026-05-07 19:32 | 51.12162 | 11.72628 | 18636 ft | 444 kts | 90° |
| 2026-05-07 19:33 | 51.12380 | 11.77428 | 18485 ft | 429 kts | 91° |
| 2026-05-07 19:33 | 51.12571 | 11.82057 | 18363 ft | 416 kts | 90° |
| 2026-05-07 19:33 | 51.12795 | 11.86620 | 17923 ft | 413 kts | 90° |
| 2026-05-07 19:33 | 51.13016 | 11.91170 | 17367 ft | 412 kts | 90° |
| 2026-05-07 19:34 | 51.13238 | 11.95655 | 17053 ft | 404 kts | 90° |
| 2026-05-07 19:34 | 51.13456 | 12.00056 | 16795 ft | 396 kts | 90° |
| 2026-05-07 19:34 | 51.13667 | 12.04388 | 16389 ft | 392 kts | 90° |
| 2026-05-07 19:34 | 51.13875 | 12.08694 | 16098 ft | 383 kts | 90° |
| 2026-05-07 19:35 | 51.14075 | 12.12821 | 15883 ft | 374 kts | 90° |
| 2026-05-07 19:35 | 51.14422 | 12.16924 | 15443 ft | 375 kts | 76° |
| 2026-05-07 19:35 | 51.15680 | 12.20479 | 15263 ft | 369 kts | 46° |
| 2026-05-07 19:35 | 51.17704 | 12.22731 | 15129 ft | 355 kts | 19° |
| 2026-05-07 19:36 | 51.20074 | 12.23389 | 14704 ft | 345 kts | 351° |
| 2026-05-07 19:36 | 51.22294 | 12.22323 | 14207 ft | 331 kts | 322° |
| 2026-05-07 19:36 | 51.23861 | 12.19847 | 13728 ft | 313 kts | 293° |
| 2026-05-07 19:36 | 51.24655 | 12.16695 | 13253 ft | 305 kts | 283° |
| 2026-05-07 19:37 | 51.25343 | 12.13510 | 12801 ft | 306 kts | 284° |
| 2026-05-07 19:37 | 51.26026 | 12.10361 | 12395 ft | 305 kts | 283° |
| 2026-05-07 19:37 | 51.26717 | 12.07104 | 11898 ft | 306 kts | 283° |
| 2026-05-07 19:37 | 51.27381 | 12.03959 | 11353 ft | 293 kts | 283° |
| 2026-05-07 19:38 | 51.28024 | 12.00888 | 10879 ft | 301 kts | 282° |
| 2026-05-07 19:38 | 51.28366 | 11.97619 | 10381 ft | 294 kts | 264° |
| 2026-05-07 19:38 | 51.28274 | 11.94376 | 9901 ft | 295 kts | 263° |
| 2026-05-07 19:38 | 51.28207 | 11.91130 | 9410 ft | 299 kts | 264° |
| 2026-05-07 19:39 | 51.28119 | 11.87786 | 8912 ft | 302 kts | 264° |
| 2026-05-07 19:39 | 51.28020 | 11.84427 | 8417 ft | 305 kts | 264° |
| 2026-05-07 19:39 | 51.27907 | 11.81039 | 7901 ft | 300 kts | 264° |
| 2026-05-07 19:39 | 51.27794 | 11.77875 | 7331 ft | 280 kts | 264° |
| 2026-05-07 19:40 | 51.27657 | 11.74726 | 6887 ft | 288 kts | 260° |
| 2026-05-07 19:40 | 51.27050 | 11.71764 | 6399 ft | 284 kts | 240° |
| 2026-05-07 19:40 | 51.26415 | 11.68806 | 5915 ft | 288 kts | 266° |
| 2026-05-07 19:40 | 51.26834 | 11.65751 | 5489 ft | 278 kts | 301° |
| 2026-05-07 19:41 | 51.28146 | 11.63685 | 4994 ft | 259 kts | 334° |
| 2026-05-07 19:41 | 51.29845 | 11.63263 | 4514 ft | 249 kts | 10° |
| 2026-05-07 19:41 | 51.31465 | 11.64308 | 4108 ft | 260 kts | 25° |
| 2026-05-07 19:41 | 51.33029 | 11.65532 | 3928 ft | 234 kts | 23° |
| 2026-05-07 19:42 | 51.34478 | 11.66644 | 4001 ft | 230 kts | 24° |
| 2026-05-07 19:42 | 51.35883 | 11.67734 | 3904 ft | 222 kts | 24° |
| 2026-05-07 19:42 | 51.37261 | 11.68874 | 3576 ft | 223 kts | 34° |
| 2026-05-07 19:42 | 51.38318 | 11.70727 | 3182 ft | 228 kts | 59° |
| 2026-05-07 19:43 | 51.38734 | 11.73137 | 3016 ft | 226 kts | 84° |
| 2026-05-07 19:43 | 51.38855 | 11.75637 | 3053 ft | 229 kts | 83° |
| 2026-05-07 19:43 | 51.39029 | 11.78099 | 2961 ft | 217 kts | 84° |
| 2026-05-07 19:43 | 51.39170 | 11.80559 | 2985 ft | 220 kts | 84° |
| 2026-05-07 19:44 | 51.39299 | 11.82850 | 3063 ft | 199 kts | 84° |
| 2026-05-07 19:44 | 51.39420 | 11.85061 | 2981 ft | 197 kts | 84° |
| 2026-05-07 19:44 | 51.39535 | 11.87233 | 2994 ft | 197 kts | 84° |
| 2026-05-07 19:44 | 51.39648 | 11.89410 | 2987 ft | 194 kts | 85° |
| 2026-05-07 19:45 | 51.39752 | 11.91440 | 2984 ft | 173 kts | 85° |
| 2026-05-07 19:45 | 51.39847 | 11.93321 | 2962 ft | 166 kts | 85° |
| 2026-05-07 19:45 | 51.39941 | 11.95177 | 3002 ft | 168 kts | 85° |
| 2026-05-07 19:45 | 51.40033 | 11.97023 | 2986 ft | 167 kts | 85° |
| 2026-05-07 19:46 | 51.40125 | 11.98884 | 2998 ft | 169 kts | 85° |
| 2026-05-07 19:46 | 51.40219 | 12.00775 | 2862 ft | 169 kts | 85° |
| 2026-05-07 19:46 | 51.40306 | 12.02577 | 2626 ft | 159 kts | 85° |
| 2026-05-07 19:46 | 51.40391 | 12.04321 | 2423 ft | 155 kts | 85° |
| 2026-05-07 19:47 | 51.40475 | 12.06039 | 2236 ft | 157 kts | 84° |
| 2026-05-07 19:47 | 51.40560 | 12.07796 | 2040 ft | 159 kts | 84° |
| 2026-05-07 19:47 | 51.40644 | 12.09551 | 1816 ft | 152 kts | 84° |
| 2026-05-07 19:47 | 51.40722 | 12.11192 | 1612 ft | 150 kts | 84° |
| 2026-05-07 19:48 | 51.40805 | 12.12919 | 1437 ft | 157 kts | 84° |
| 2026-05-07 19:48 | 51.40884 | 12.14584 | 1203 ft | 150 kts | 84° |
| 2026-05-07 19:48 | 51.40967 | 12.16316 | 1011 ft | 154 kts | 84° |
| 2026-05-07 19:48 | 51.41046 | 12.17997 | 792 ft | 149 kts | 85° |
| 2026-05-07 19:49 | 51.41120 | 12.19629 | 571 ft | 145 kts | 83° |
| 2026-05-07 19:49 | 51.41197 | 12.21239 | 491 ft | 142 kts | 85° |
| 2026-05-07 19:49 | 51.41246 | 12.22464 | 477 ft | 61 kts | 86° |
| 2026-05-07 19:49 | 51.41265 | 12.22886 | 477 ft | 34 kts | 84° |
| 2026-05-07 19:50 | 51.41286 | 12.23255 | 477 ft | 32 kts | 84° |
| 2026-05-07 19:50 | 51.41305 | 12.23602 | 477 ft | 30 kts | 85° |
| 2026-05-07 19:50 | 51.41291 | 12.23924 | 477 ft | 28 kts | 93° |
| 2026-05-07 19:50 | 51.41244 | 12.24169 | 477 ft | 15 kts | 115° |
| 2026-05-07 19:51 | 51.41202 | 12.24310 | 477 ft | 3 kts | 115° |
| 2026-05-07 19:51 | 51.41190 | 12.24346 | 477 ft | 0 kts | 117° |
| 2026-05-07 19:52 | 51.41189 | 12.24352 | 477 ft | 2 kts | 118° |
| 2026-05-07 19:52 | 51.41176 | 12.24391 | 477 ft | 5 kts | 110° |
| 2026-05-07 19:52 | 51.41176 | 12.24464 | 477 ft | 7 kts | 86° |
| 2026-05-07 19:53 | 51.41166 | 12.24554 | 477 ft | 9 kts | 128° |
| 2026-05-07 19:53 | 51.41109 | 12.24547 | 477 ft | 9 kts | 226° |
| 2026-05-07 19:53 | 51.41087 | 12.24441 | 477 ft | 10 kts | 266° |
| 2026-05-07 19:53 | 51.41082 | 12.24317 | 477 ft | 11 kts | 266° |
| 2026-05-07 19:54 | 51.41076 | 12.24187 | 477 ft | 12 kts | 265° |
| 2026-05-07 19:54 | 51.41070 | 12.24049 | 477 ft | 12 kts | 266° |
| 2026-05-07 19:54 | 51.41067 | 12.23976 | 477 ft | 4 kts | 265° |
| 2026-05-07 19:54 | 51.41064 | 12.23907 | 477 ft | 7 kts | 265° |
| 2026-05-07 19:55 | 51.41060 | 12.23843 | 477 ft | 0 kts | 265° |
| 2026-05-07 19:55 | 51.41060 | 12.23842 | 477 ft | 0 kts | 265° |
| 2026-05-07 19:55 | 51.41059 | 12.23809 | 477 ft | 4 kts | 265° |
| 2026-05-07 19:55 | 51.41055 | 12.23740 | 477 ft | 7 kts | 265° |
| 2026-05-07 19:56 | 51.41050 | 12.23646 | 477 ft | 9 kts | 265° |
| 2026-05-07 19:56 | 51.41044 | 12.23534 | 477 ft | 10 kts | 265° |
| 2026-05-07 19:56 | 51.41038 | 12.23412 | 477 ft | 11 kts | 265° |
| 2026-05-07 19:56 | 51.41032 | 12.23281 | 477 ft | 12 kts | 266° |
| 2026-05-07 19:57 | 51.41026 | 12.23144 | 477 ft | 12 kts | 265° |
| 2026-05-07 19:57 | 51.41019 | 12.23004 | 477 ft | 12 kts | 265° |
| 2026-05-07 19:57 | 51.41015 | 12.22905 | 477 ft | 6 kts | 265° |
| 2026-05-07 19:57 | 51.40990 | 12.22844 | 477 ft | 7 kts | 206° |
| 2026-05-07 19:58 | 51.40941 | 12.22840 | 477 ft | 0 kts | 175° |